A- A+ FrançaisEnglishEspañol中国

Services sur Internet Soldes sur Internet Des idées de cadeaux Météo Météo aéro

La météo à : Autours de vous Tarbes-Lourdes-PyrénéesNimes-Courbessac Toulouse-BlagnacAnnecy-Meythet

La météo aéronautique pour les pilotes, la préparation du vol avec les METAR (METeorological Aerodrome Report, message d'observation des conditions météorologiques pour l'aviation) et Les TAF (Terminal Aerodrome Forecast : message de prévision à court terme des conditions météorologiques pour l'aviation). Et les autres ressources comme les VAC (Visual Approch Chart) et les NOTAM (Notice To Airman) pour préprer les vols.

Aéroport Toronto City Centre (Canada) / OACI CYTZ/ IATA YTZ

L'altitude de l'aéroport Toronto City Centre est de 77 m = 253 ft. Il est situé à proximité de Toronto (Canada). La météo générale à 5 jours est disponible pour Ward's Island situé à 3.3 km.

METAR de l'aéroport Toronto City Centre - CYTZ

CYTZ 092027Z AUTO VRB02KT 2 1/2SM -RA BR OVC010 06/06 A2946 RMK SLP981

Décodage du METAR de l'aéroport Toronto City Centre (CA)

METAR émis par CYTZ le lundi 9 décembre 2019 à 20:27 heure TU. C'est un METAR généré automatiquement, il y a 14 minutes.

La visibilité est de 4 km = 2.5 sm.

La température est de 6°C = 43 °F et le point rosée est de 6°C = 43 °F . Ce qui correspond à 100% d'humidité relative.

Le QNH est de 998 hPa = 29.47 inHg

Vent de 2 kt = 4 km/h, orienté à °.

Nuages : Couverture nuageuse soudée à 1000 ft = 300 mètres.

-RA BR

RMK SLP981

TAF de l'aéroport Toronto City Centre - CYTZ

CYTZ 081834Z 0818/0914 22012KT P6SM BKN180 TEMPO 0818/0822 BKN020 BECMG 0819/0821 19015G25KT FM082200 23018G30KT P6SM BKN030 BKN180 TEMPO 0822/0902 OVC020 BECMG 0822/0824 23012G22KT FM090200 23012G22KT P6SM -RA OVC020 BECMG 0905/0907 21012KT RMK FCST BASED ON AUTO OBS. NXT FCST BY 082000Z

CYTZ 081834Z 0818/0914 22012KT P6SM couverture nuageuse fragmentée à 180 temporairement 0818/0822 couverture nuageuse fragmentée à 020 devenant 0819/0821 19015G25KT FM082200 23018G30KT P6SM couverture nuageuse fragmentée à 030 couverture nuageuse fragmentée à 180 temporairement 0822/0902 couverture nuageuse soudée à 020 devenant 0822/0824 23012G22KT FM090200 23012G22KT P6SM faible RA couverture nuageuse soudée à 020 devenant 0905/0907 21012KT remarques trombe ST BASED ON AUTO OBS. NXT trombe ST BY 082000Z

Aéroport à proximité de Toronto City Centre

Météo générale à 5 jours à Ward's Island (3.3 km)Aéroport Toronto Downsview (14 km)Aéroport Toronto Lester (20 km)Aéroport Toronto Buttonville Muni (26 km)Aéroport Burlington Airpark (42 km)Aéroport St Catharines (52 km)Aéroport Oshawa (52 km)

Vue aérienne de l'aéroport Toronto City Centre

NOTAM de l'aéroport Toronto City Centre

Les NOTAM sont fournis sans aucune garantie de leur actualité. Le pilote est le seul responsable de la vérification de sa validité avant de l'utiliser opérationnellement pour préparer un vol ou l'utiliser lors de sa navigation.

Pas de NOTAM

Sources des données